Time;durP1;ratioP1;P1;durP2;ratioP2;P2;SDS_P1;SDS_P2;PMS_P1;PMS_P2;Temp;Humidity;BMP_temperature;BMP_pressure;BME280_temperature;BME280_humidity;BME280_pressure;Samples;Min_cycle;Max_cycle;Signal;HPM_P1;HPM_P2
2021/12/10 00:01:49;;;;;;;56.97;30.60;;;;;;;;;;6154225;23;20104;-80
2021/12/10 00:04:16;;;;;;;54.63;31.33;;;;;;;;;;6153635;23;20017;-80
2021/12/10 00:06:46;;;;;;;52.28;31.10;;;;;;;;;;6153869;23;20025;-80
2021/12/10 00:09:14;;;;;;;52.53;29.45;;;;;;;;;;6129855;23;20351;-80
2021/12/10 00:11:51;;;;;;;52.42;30.60;;;;;;;;;;6129473;23;20009;-81
2021/12/10 00:14:18;;;;;;;52.95;31.30;;;;;;;;;;6129639;23;20097;-80
2021/12/10 00:16:44;;;;;;;49.83;30.50;;;;;;;;;;6153866;23;20403;-80
2021/12/10 00:19:29;;;;;;;55.25;32.58;;;;;;;;;;6153868;23;20048;-80
2021/12/10 00:21:57;;;;;;;52.10;30.55;;;;;;;;;;6128669;23;20055;-80
2021/12/10 00:24:26;;;;;;;55.40;28.20;;;;;;;;;;6153849;23;20075;-81
2021/12/10 00:26:52;;;;;;;46.22;27.60;;;;;;;;;;6154096;23;20079;-81
2021/12/10 00:29:19;;;;;;;47.05;27.73;;;;;;;;;;6153264;23;20017;-80
2021/12/10 00:31:51;;;;;;;52.85;29.55;;;;;;;;;;6129100;23;20031;-81
2021/12/10 00:34:21;;;;;;;52.17;29.88;;;;;;;;;;6129330;23;20375;-80
2021/12/10 00:36:48;;;;;;;53.80;29.85;;;;;;;;;;6153837;23;20040;-81
2021/12/10 00:39:17;;;;;;;49.10;28.02;;;;;;;;;;6153749;23;20024;-80
2021/12/10 00:41:43;;;;;;;49.58;29.23;;;;;;;;;;6153703;23;20016;-80
2021/12/10 00:44:09;;;;;;;47.70;28.17;;;;;;;;;;6153926;23;20379;-80
2021/12/10 00:46:36;;;;;;;52.58;29.40;;;;;;;;;;6129100;23;20404;-80
2021/12/10 00:49:03;;;;;;;51.80;28.75;;;;;;;;;;6153552;23;20021;-80
2021/12/10 00:51:29;;;;;;;51.88;27.35;;;;;;;;;;6129151;23;20072;-80
2021/12/10 00:53:56;;;;;;;47.58;27.25;;;;;;;;;;6128862;23;20454;-80
2021/12/10 00:56:22;;;;;;;45.47;25.30;;;;;;;;;;6128855;23;20016;-80
2021/12/10 00:58:48;;;;;;;47.20;26.50;;;;;;;;;;6153549;23;20410;-80
2021/12/10 01:01:21;;;;;;;43.67;26.42;;;;;;;;;;6153780;23;20063;-80
2021/12/10 01:03:55;;;;;;;42.63;25.77;;;;;;;;;;6153422;23;20052;-80
2021/12/10 01:06:23;;;;;;;47.38;26.65;;;;;;;;;;6153339;23;20509;-80
2021/12/10 01:08:51;;;;;;;40.72;23.38;;;;;;;;;;6153357;23;20021;-81
2021/12/10 01:11:21;;;;;;;44.85;26.73;;;;;;;;;;6153438;23;20446;-81
2021/12/10 01:13:50;;;;;;;44.88;26.63;;;;;;;;;;6153363;23;20312;-80
2021/12/10 01:27:02;;;;;;;43.35;24.70;;;;;;;;;;6153334;23;20020;-80
2021/12/10 01:29:34;;;;;;;46.05;25.30;;;;;;;;;;6153337;23;20510;-80
2021/12/10 01:32:01;;;;;;;43.33;24.63;;;;;;;;;;6128634;23;20012;-80
2021/12/10 01:34:27;;;;;;;42.45;25.40;;;;;;;;;;6128738;23;20013;-80
2021/12/10 01:36:54;;;;;;;44.10;25.52;;;;;;;;;;6153210;23;20343;-80
2021/12/10 01:39:22;;;;;;;41.13;25.42;;;;;;;;;;6153314;23;20019;-80
2021/12/10 01:41:55;;;;;;;44.20;25.33;;;;;;;;;;6128762;23;20043;-80
2021/12/10 01:44:31;;;;;;;41.72;25.58;;;;;;;;;;6152808;23;20017;-80
2021/12/10 01:47:04;;;;;;;43.92;26.33;;;;;;;;;;6152907;23;20013;-80
2021/12/10 01:49:30;;;;;;;47.45;26.08;;;;;;;;;;6153258;23;20355;-80
2021/12/10 01:51:57;;;;;;;41.20;23.55;;;;;;;;;;6153069;23;20454;-80
2021/12/10 01:54:30;;;;;;;43.47;25.52;;;;;;;;;;6153442;23;20044;-80
2021/12/10 01:56:57;;;;;;;42.97;26.63;;;;;;;;;;6128501;23;20041;-80
2021/12/10 01:59:24;;;;;;;43.65;26.13;;;;;;;;;;6153155;23;20013;-80
2021/12/10 02:01:52;;;;;;;44.80;25.55;;;;;;;;;;6152973;23;20017;-80
2021/12/10 02:04:20;;;;;;;45.60;26.15;;;;;;;;;;6152678;23;20021;-80
2021/12/10 02:06:46;;;;;;;44.90;26.27;;;;;;;;;;6128149;23;20078;-80
2021/12/10 02:09:13;;;;;;;45.55;26.13;;;;;;;;;;6153056;23;20025;-81
2021/12/10 02:11:39;;;;;;;43.85;26.25;;;;;;;;;;6152888;23;20041;-80
2021/12/10 02:14:05;;;;;;;42.55;24.60;;;;;;;;;;6153072;23;20521;-80
2021/12/10 02:16:31;;;;;;;48.60;24.92;;;;;;;;;;6153099;23;20190;-80
2021/12/10 02:18:57;;;;;;;42.90;25.15;;;;;;;;;;6128568;23;20020;-80
2021/12/10 02:21:25;;;;;;;41.42;24.13;;;;;;;;;;6128016;23;20092;-80
2021/12/10 02:23:56;;;;;;;42.25;23.30;;;;;;;;;;6152649;23;20056;-80
2021/12/10 02:26:23;;;;;;;35.60;22.33;;;;;;;;;;6128522;23;20053;-80
2021/12/10 02:28:49;;;;;;;33.38;20.35;;;;;;;;;;6128436;23;20104;-80
2021/12/10 02:31:16;;;;;;;30.70;20.30;;;;;;;;;;6153007;23;20013;-81
2021/12/10 02:33:42;;;;;;;39.67;20.73;;;;;;;;;;6128669;23;20013;-80
2021/12/10 02:36:12;;;;;;;30.55;19.63;;;;;;;;;;6128380;23;20071;-80
2021/12/10 02:38:43;;;;;;;32.00;21.25;;;;;;;;;;6152938;23;20021;-80
2021/12/10 02:41:09;;;;;;;32.38;21.55;;;;;;;;;;6152796;23;20017;-80
2021/12/10 02:43:36;;;;;;;33.05;19.35;;;;;;;;;;6152720;23;20126;-80
2021/12/10 02:46:02;;;;;;;34.35;19.00;;;;;;;;;;6152821;23;20051;-80
2021/12/10 02:48:28;;;;;;;35.88;20.90;;;;;;;;;;6152799;23;20021;-80
2021/12/10 02:50:56;;;;;;;34.75;20.30;;;;;;;;;;6153320;23;20013;-80
2021/12/10 02:53:27;;;;;;;31.83;19.65;;;;;;;;;;6153009;23;20101;-80
2021/12/10 02:55:53;;;;;;;32.53;19.40;;;;;;;;;;6154460;23;20016;-79
2021/12/10 02:58:19;;;;;;;29.42;19.33;;;;;;;;;;6154736;23;20450;-80
2021/12/10 03:00:45;;;;;;;29.50;18.23;;;;;;;;;;6154610;23;20017;-80
2021/12/10 03:03:11;;;;;;;29.45;18.58;;;;;;;;;;6154598;23;20067;-81
2021/12/10 03:05:37;;;;;;;31.52;19.15;;;;;;;;;;6129753;23;20021;-80
2021/12/10 03:08:03;;;;;;;32.58;19.23;;;;;;;;;;6129706;23;20048;-80
2021/12/10 03:10:30;;;;;;;32.92;20.65;;;;;;;;;;6154617;23;20017;-80
2021/12/10 03:12:56;;;;;;;32.55;18.92;;;;;;;;;;6130348;23;20119;-80
2021/12/10 03:15:23;;;;;;;30.33;18.80;;;;;;;;;;6154532;23;20329;-81
2021/12/10 03:17:49;;;;;;;35.78;19.73;;;;;;;;;;6130032;23;20020;-80
2021/12/10 03:20:16;;;;;;;33.47;19.05;;;;;;;;;;6129776;23;20016;-80
2021/12/10 03:22:43;;;;;;;31.92;19.80;;;;;;;;;;6154426;23;20013;-80
2021/12/10 03:25:10;;;;;;;30.10;18.20;;;;;;;;;;6154774;23;20009;-80
2021/12/10 03:27:37;;;;;;;30.88;19.25;;;;;;;;;;6154442;23;20016;-80
2021/12/10 03:30:05;;;;;;;30.63;18.65;;;;;;;;;;6154579;23;20009;-80
2021/12/10 03:32:32;;;;;;;30.55;17.95;;;;;;;;;;6129871;23;20009;-80
2021/12/10 03:34:59;;;;;;;32.45;18.60;;;;;;;;;;6154310;23;20672;-80
2021/12/10 03:37:26;;;;;;;29.27;19.15;;;;;;;;;;6154386;23;20036;-80
2021/12/10 03:39:53;;;;;;;37.58;19.83;;;;;;;;;;6154391;23;20021;-80
2021/12/10 03:42:19;;;;;;;32.95;19.20;;;;;;;;;;6129560;23;20092;-80
2021/12/10 03:44:45;;;;;;;30.77;19.00;;;;;;;;;;6129254;23;20278;-80
2021/12/10 03:47:12;;;;;;;30.75;18.70;;;;;;;;;;6129177;23;20021;-80
2021/12/10 03:49:39;;;;;;;31.50;20.55;;;;;;;;;;6129154;23;20013;-80
2021/12/10 03:52:07;;;;;;;32.53;20.33;;;;;;;;;;6154092;23;20088;-80
2021/12/10 03:54:33;;;;;;;37.65;20.15;;;;;;;;;;6129714;23;20406;-80
2021/12/10 03:56:59;;;;;;;31.00;20.60;;;;;;;;;;6154133;23;20013;-80
2021/12/10 03:59:26;;;;;;;34.95;22.98;;;;;;;;;;6154218;23;20052;-80
2021/12/10 04:01:53;;;;;;;33.72;21.75;;;;;;;;;;6129516;23;20021;-80
2021/12/10 04:04:35;;;;;;;36.10;22.75;;;;;;;;;;6129639;23;20087;-80
2021/12/10 04:07:02;;;;;;;34.13;23.33;;;;;;;;;;6124025;23;20083;-80
2021/12/10 04:09:28;;;;;;;36.00;24.67;;;;;;;;;;6124206;23;20391;-80
2021/12/10 04:11:55;;;;;;;36.83;24.15;;;;;;;;;;6124570;23;20343;-80
2021/12/10 04:14:22;;;;;;;37.45;25.77;;;;;;;;;;6124357;23;20021;-80
2021/12/10 04:16:54;;;;;;;38.85;27.25;;;;;;;;;;6124352;23;20013;-80
2021/12/10 04:19:20;;;;;;;38.92;26.35;;;;;;;;;;6124866;23;20017;-80
2021/12/10 04:21:47;;;;;;;37.55;26.88;;;;;;;;;;6124480;23;20013;-80
2021/12/10 04:24:18;;;;;;;39.38;27.58;;;;;;;;;;6124490;23;20470;-80
2021/12/10 04:26:44;;;;;;;38.13;26.25;;;;;;;;;;6124362;23;20024;-80
2021/12/10 04:29:10;;;;;;;39.13;27.45;;;;;;;;;;6124225;23;20245;-80
2021/12/10 04:31:37;;;;;;;34.80;24.95;;;;;;;;;;6100026;23;20246;-80
2021/12/10 04:34:03;;;;;;;35.53;25.85;;;;;;;;;;6124315;23;20452;-80
2021/12/10 04:36:29;;;;;;;41.25;24.80;;;;;;;;;;6124374;23;20009;-80
2021/12/10 04:38:55;;;;;;;31.60;20.70;;;;;;;;;;6099963;23;20108;-80
2021/12/10 04:41:21;;;;;;;33.55;22.33;;;;;;;;;;6124333;23;20385;-80
2021/12/10 04:43:47;;;;;;;33.65;21.52;;;;;;;;;;6099705;23;20522;-80
2021/12/10 04:46:14;;;;;;;30.63;21.70;;;;;;;;;;6124201;23;20014;-80
2021/12/10 04:48:46;;;;;;;33.90;22.52;;;;;;;;;;6124046;23;20068;-80
2021/12/10 04:51:12;;;;;;;36.58;22.92;;;;;;;;;;6099845;23;20101;-80
2021/12/10 04:53:38;;;;;;;35.28;22.95;;;;;;;;;;6124191;23;20053;-80
2021/12/10 04:56:04;;;;;;;31.08;21.60;;;;;;;;;;6099378;23;20333;-80
2021/12/10 04:58:32;;;;;;;32.33;21.33;;;;;;;;;;6124319;23;20018;-80
2021/12/10 05:00:58;;;;;;;33.40;23.35;;;;;;;;;;6124001;23;20014;-80
2021/12/10 05:03:24;;;;;;;30.58;20.15;;;;;;;;;;6124087;23;20013;-80
2021/12/10 05:05:50;;;;;;;32.00;21.25;;;;;;;;;;6140831;23;20427;-80
2021/12/10 05:08:16;;;;;;;34.13;20.90;;;;;;;;;;6153761;23;20389;-80
2021/12/10 05:10:43;;;;;;;31.70;20.42;;;;;;;;;;6129099;23;20024;-80
2021/12/10 05:13:09;;;;;;;32.53;21.85;;;;;;;;;;6153624;23;20013;-80
2021/12/10 05:15:37;;;;;;;32.28;21.65;;;;;;;;;;6153265;23;20350;-80
2021/12/10 05:18:03;;;;;;;34.90;22.77;;;;;;;;;;6153435;23;20089;-80
2021/12/10 05:20:32;;;;;;;31.88;20.80;;;;;;;;;;6153591;23;20013;-80
2021/12/10 05:22:58;;;;;;;32.90;21.63;;;;;;;;;;6153451;23;20024;-80
2021/12/10 05:25:26;;;;;;;32.35;20.55;;;;;;;;;;6153458;23;20009;-80
2021/12/10 05:27:52;;;;;;;34.17;21.92;;;;;;;;;;6153307;23;20504;-80
2021/12/10 05:30:19;;;;;;;35.03;22.60;;;;;;;;;;6153773;23;20342;-80
2021/12/10 05:32:45;;;;;;;35.10;23.42;;;;;;;;;;6153443;23;20016;-80
2021/12/10 05:35:12;;;;;;;38.13;23.85;;;;;;;;;;6153347;23;20009;-80
2021/12/10 05:37:38;;;;;;;36.55;24.08;;;;;;;;;;6128770;23;20209;-80
2021/12/10 05:40:05;;;;;;;35.13;22.90;;;;;;;;;;6128798;23;20059;-80
2021/12/10 05:42:31;;;;;;;38.47;25.33;;;;;;;;;;6128771;23;20017;-80
2021/12/10 05:44:57;;;;;;;41.85;24.88;;;;;;;;;;6128880;23;20032;-80
2021/12/10 05:47:23;;;;;;;37.40;24.63;;;;;;;;;;6153328;23;20096;-80
2021/12/10 05:49:50;;;;;;;38.17;24.90;;;;;;;;;;6153260;23;20014;-80
2021/12/10 05:52:16;;;;;;;39.65;25.05;;;;;;;;;;6153216;23;20096;-80
2021/12/10 05:54:43;;;;;;;39.10;23.27;;;;;;;;;;6128596;23;20060;-80
2021/12/10 05:57:10;;;;;;;34.83;22.08;;;;;;;;;;6153130;23;20191;-80
2021/12/10 05:59:36;;;;;;;34.53;23.17;;;;;;;;;;6153193;23;20494;-80
2021/12/10 06:02:03;;;;;;;36.97;23.08;;;;;;;;;;6152760;23;20443;-80
2021/12/10 06:04:29;;;;;;;36.58;23.50;;;;;;;;;;6128533;23;20020;-80
2021/12/10 06:06:56;;;;;;;37.33;23.52;;;;;;;;;;6152225;23;20016;-80
2021/12/10 06:09:22;;;;;;;35.72;23.02;;;;;;;;;;6153355;23;20107;-80
2021/12/10 06:11:50;;;;;;;33.00;22.15;;;;;;;;;;6128582;23;20091;-80
2021/12/10 06:14:16;;;;;;;33.65;22.77;;;;;;;;;;6153441;23;20016;-80
2021/12/10 06:16:42;;;;;;;31.75;20.92;;;;;;;;;;6153160;23;20016;-80
2021/12/10 06:19:09;;;;;;;32.47;21.67;;;;;;;;;;6128572;23;20390;-80
2021/12/10 06:21:35;;;;;;;33.28;22.15;;;;;;;;;;6153071;23;20439;-80
2021/12/10 06:24:03;;;;;;;31.00;21.25;;;;;;;;;;6152871;23;20013;-79
2021/12/10 06:26:29;;;;;;;34.22;21.58;;;;;;;;;;6153233;23;20017;-80
2021/12/10 06:28:55;;;;;;;31.52;21.60;;;;;;;;;;6153019;23;20387;-80
2021/12/10 06:31:22;;;;;;;31.90;21.88;;;;;;;;;;6155179;23;20072;-79
2021/12/10 06:33:49;;;;;;;32.13;21.40;;;;;;;;;;6155161;23;20009;-80
2021/12/10 06:36:16;;;;;;;34.25;22.10;;;;;;;;;;6153393;23;20017;-80
2021/12/10 06:38:42;;;;;;;32.13;21.58;;;;;;;;;;6157338;23;20091;-80
2021/12/10 06:41:08;;;;;;;30.35;20.25;;;;;;;;;;6157552;23;20072;-80
2021/12/10 06:43:34;;;;;;;29.52;20.83;;;;;;;;;;6133107;23;20013;-80
2021/12/10 06:46:01;;;;;;;31.25;18.30;;;;;;;;;;6130318;23;20018;-80
2021/12/10 06:48:27;;;;;;;29.63;18.27;;;;;;;;;;6154880;23;20017;-80
2021/12/10 06:50:59;;;;;;;27.85;19.75;;;;;;;;;;6154833;23;20067;-80
2021/12/10 06:53:26;;;;;;;27.52;17.30;;;;;;;;;;6130751;23;20024;-81
2021/12/10 06:55:52;;;;;;;26.92;17.75;;;;;;;;;;6130605;23;20013;-83
2021/12/10 06:58:18;;;;;;;31.00;19.88;;;;;;;;;;6130308;23;20017;-82
2021/12/10 07:00:46;;;;;;;44.35;28.95;;;;;;;;;;6130158;23;20013;-83
2021/12/10 07:03:14;;;;;;;36.55;27.52;;;;;;;;;;6154351;23;20087;-81
2021/12/10 07:05:41;;;;;;;25.27;18.20;;;;;;;;;;6154427;23;20025;-82
2021/12/10 07:08:07;;;;;;;29.50;18.88;;;;;;;;;;6154248;23;20464;-81
2021/12/10 07:10:33;;;;;;;27.65;17.58;;;;;;;;;;6154392;23;20045;-83
2021/12/10 07:13:00;;;;;;;30.23;21.25;;;;;;;;;;6154548;23;20450;-82
2021/12/10 07:15:27;;;;;;;95.78;80.57;;;;;;;;;;6157657;23;20017;-83
2021/12/10 07:17:53;;;;;;;30.25;21.35;;;;;;;;;;6157162;23;20672;-82
2021/12/10 07:20:20;;;;;;;48.63;33.22;;;;;;;;;;6154659;23;20494;-82
2021/12/10 07:22:47;;;;;;;53.25;41.28;;;;;;;;;;6153215;23;20013;-82
2021/12/10 07:25:14;;;;;;;27.45;17.17;;;;;;;;;;6128754;23;20009;-82
2021/12/10 07:27:40;;;;;;;28.20;16.05;;;;;;;;;;6153620;23;20013;-82
2021/12/10 07:30:07;;;;;;;31.50;20.92;;;;;;;;;;6153709;23;20084;-84
2021/12/10 07:32:33;;;;;;;29.95;18.20;;;;;;;;;;6153984;23;20013;-83
2021/12/10 07:34:59;;;;;;;27.48;17.85;;;;;;;;;;6153754;23;20027;-83
2021/12/10 07:37:25;;;;;;;24.70;16.23;;;;;;;;;;6129654;23;20386;-83
2021/12/10 07:39:51;;;;;;;24.65;16.70;;;;;;;;;;6129596;23;20013;-83
2021/12/10 07:42:17;;;;;;;23.95;15.43;;;;;;;;;;6153471;23;20096;-83
2021/12/10 07:44:43;;;;;;;26.45;18.23;;;;;;;;;;6153990;23;20541;-83
2021/12/10 07:47:12;;;;;;;27.90;17.58;;;;;;;;;;6154089;23;20053;-83
2021/12/10 07:49:39;;;;;;;22.40;15.88;;;;;;;;;;6129520;23;20017;-82
2021/12/10 07:52:15;;;;;;;22.20;15.82;;;;;;;;;;6129825;23;20009;-83
2021/12/10 07:54:42;;;;;;;30.77;17.27;;;;;;;;;;6129190;23;20013;-81
2021/12/10 07:57:08;;;;;;;29.90;16.23;;;;;;;;;;6156977;23;20013;-81
2021/12/10 07:59:35;;;;;;;27.80;16.15;;;;;;;;;;6130374;23;20021;-81
2021/12/10 08:02:01;;;;;;;23.75;15.75;;;;;;;;;;6153300;23;20092;-81
2021/12/10 08:04:28;;;;;;;28.02;15.73;;;;;;;;;;6153354;23;20016;-80
2021/12/10 08:06:54;;;;;;;23.27;14.27;;;;;;;;;;6153458;23;20025;-80
2021/12/10 08:09:20;;;;;;;29.17;17.35;;;;;;;;;;6153765;23;20188;-81
2021/12/10 08:11:46;;;;;;;25.17;16.13;;;;;;;;;;6154022;23;20096;-81
2021/12/10 08:14:12;;;;;;;25.55;15.30;;;;;;;;;;6153938;23;20427;-81
2021/12/10 08:16:39;;;;;;;22.98;15.20;;;;;;;;;;6129688;23;20391;-81
2021/12/10 08:19:05;;;;;;;23.83;15.50;;;;;;;;;;6153625;23;20024;-81
2021/12/10 08:21:31;;;;;;;22.48;15.73;;;;;;;;;;6129050;23;20020;-82
2021/12/10 08:23:57;;;;;;;22.83;14.50;;;;;;;;;;6153209;23;20020;-82
2021/12/10 08:26:23;;;;;;;21.85;14.20;;;;;;;;;;6153668;23;20462;-81
2021/12/10 08:28:50;;;;;;;22.83;14.95;;;;;;;;;;6153594;23;20404;-80
2021/12/10 08:31:16;;;;;;;21.88;15.00;;;;;;;;;;6153702;23;20017;-80
2021/12/10 08:33:45;;;;;;;24.25;14.82;;;;;;;;;;6153719;23;20222;-81
2021/12/10 08:36:11;;;;;;;23.38;14.43;;;;;;;;;;6128884;23;20009;-82
2021/12/10 08:38:38;;;;;;;25.05;13.98;;;;;;;;;;6128987;23;20342;-82
2021/12/10 08:41:07;;;;;;;24.73;14.75;;;;;;;;;;6128438;23;20107;-82
2021/12/10 08:43:33;;;;;;;22.30;13.88;;;;;;;;;;6153738;23;20012;-82
2021/12/10 08:46:00;;;;;;;22.73;13.63;;;;;;;;;;6153275;23;20017;-82
2021/12/10 08:48:27;;;;;;;23.48;14.60;;;;;;;;;;6127915;23;20052;-83
2021/12/10 08:50:54;;;;;;;23.73;13.68;;;;;;;;;;6128763;23;20009;-82
2021/12/10 08:53:20;;;;;;;23.33;13.75;;;;;;;;;;6128728;23;20009;-83
2021/12/10 08:55:49;;;;;;;23.38;13.98;;;;;;;;;;6153169;23;20347;-82
2021/12/10 08:58:16;;;;;;;22.98;13.52;;;;;;;;;;6153373;23;20096;-82
2021/12/10 09:00:43;;;;;;;23.48;13.32;;;;;;;;;;6125661;23;20088;-83
2021/12/10 09:03:09;;;;;;;20.02;13.18;;;;;;;;;;6152999;23;20020;-83
2021/12/10 09:05:38;;;;;;;19.92;13.02;;;;;;;;;;6153591;23;20095;-83
2021/12/10 09:08:04;;;;;;;26.17;16.58;;;;;;;;;;6153340;23;20350;-81
2021/12/10 09:10:33;;;;;;;21.08;13.02;;;;;;;;;;6153637;23;20446;-82
2021/12/10 09:12:59;;;;;;;21.80;13.27;;;;;;;;;;6128983;23;20358;-82
2021/12/10 09:15:27;;;;;;;22.30;14.70;;;;;;;;;;6153617;23;20009;-82
2021/12/10 09:17:57;;;;;;;21.40;13.98;;;;;;;;;;6129379;23;20009;-83
2021/12/10 09:20:25;;;;;;;19.83;12.25;;;;;;;;;;6153920;23;20013;-83
2021/12/10 09:22:53;;;;;;;18.88;12.40;;;;;;;;;;6129176;23;20013;-83
2021/12/10 09:25:19;;;;;;;19.52;12.57;;;;;;;;;;6129015;23;20013;-83
2021/12/10 09:27:45;;;;;;;19.60;12.00;;;;;;;;;;6153496;23;20351;-84
2021/12/10 09:30:13;;;;;;;18.65;12.32;;;;;;;;;;6128610;23;20021;-83
2021/12/10 09:32:40;;;;;;;17.77;12.35;;;;;;;;;;6153750;23;20324;-82
2021/12/10 09:35:07;;;;;;;19.17;11.98;;;;;;;;;;6153405;23;20020;-82
2021/12/10 09:37:34;;;;;;;19.67;11.13;;;;;;;;;;6153406;23;20342;-82
2021/12/10 09:40:00;;;;;;;20.00;10.82;;;;;;;;;;6153802;23;20017;-82
2021/12/10 09:42:26;;;;;;;20.48;11.48;;;;;;;;;;6153440;23;20497;-82
2021/12/10 09:44:54;;;;;;;17.50;10.55;;;;;;;;;;6153196;23;20680;-82
2021/12/10 09:47:21;;;;;;;19.80;11.75;;;;;;;;;;6153074;23;20088;-82
2021/12/10 09:49:49;;;;;;;20.83;12.50;;;;;;;;;;6128634;23;20088;-83
2021/12/10 09:52:17;;;;;;;17.80;10.80;;;;;;;;;;6128688;23;20013;-81
2021/12/10 09:54:43;;;;;;;18.98;11.38;;;;;;;;;;6128631;23;20355;-82
2021/12/10 09:57:15;;;;;;;18.33;11.23;;;;;;;;;;6152994;23;20020;-82
2021/12/10 09:59:43;;;;;;;19.75;10.85;;;;;;;;;;6153187;23;20092;-82
2021/12/10 10:02:09;;;;;;;17.48;10.07;;;;;;;;;;6153185;23;20382;-82
2021/12/10 10:04:37;;;;;;;17.95;10.00;;;;;;;;;;6127702;23;20016;-82
2021/12/10 10:07:06;;;;;;;17.88;9.73;;;;;;;;;;6153431;23;20021;-81
2021/12/10 10:09:32;;;;;;;15.25;9.60;;;;;;;;;;6128620;23;20470;-81
2021/12/10 10:12:04;;;;;;;16.55;9.75;;;;;;;;;;6153154;23;20015;-81
2021/12/10 10:14:32;;;;;;;17.48;9.40;;;;;;;;;;6153213;23;20015;-81
2021/12/10 10:16:58;;;;;;;17.63;9.77;;;;;;;;;;6153157;23;20085;-82
2021/12/10 10:19:25;;;;;;;14.85;9.05;;;;;;;;;;6153222;23;20087;-81
2021/12/10 10:21:53;;;;;;;16.02;9.30;;;;;;;;;;6128815;23;20013;-81
2021/12/10 10:24:20;;;;;;;15.32;9.43;;;;;;;;;;6153229;23;20021;-81
2021/12/10 10:26:49;;;;;;;15.48;9.30;;;;;;;;;;6152975;23;20017;-81
2021/12/10 10:29:17;;;;;;;16.92;9.68;;;;;;;;;;6128810;23;20017;-81
2021/12/10 10:31:49;;;;;;;15.55;9.30;;;;;;;;;;6153064;23;20015;-81
2021/12/10 10:34:19;;;;;;;15.23;9.07;;;;;;;;;;6153172;23;20092;-81
2021/12/10 10:36:45;;;;;;;14.70;8.40;;;;;;;;;;6152911;23;20068;-81
2021/12/10 10:39:17;;;;;;;15.07;8.75;;;;;;;;;;6128604;23;20023;-83
2021/12/10 10:41:45;;;;;;;14.52;8.85;;;;;;;;;;6153131;23;20023;-82
2021/12/10 10:44:11;;;;;;;13.63;8.55;;;;;;;;;;6128457;23;20029;-83
2021/12/10 10:46:37;;;;;;;13.95;8.73;;;;;;;;;;6128454;23;20358;-83
2021/12/10 10:49:04;;;;;;;12.70;7.90;;;;;;;;;;6153048;23;20630;-83
2021/12/10 10:51:32;;;;;;;15.05;8.70;;;;;;;;;;6153195;23;20080;-82
2021/12/10 10:53:59;;;;;;;12.52;8.15;;;;;;;;;;6153217;23;20509;-81
2021/12/10 10:56:30;;;;;;;12.25;7.95;;;;;;;;;;6152265;23;20020;-81
2021/12/10 10:59:01;;;;;;;14.32;7.80;;;;;;;;;;6153020;23;20398;-81
2021/12/10 11:01:40;;;;;;;12.73;7.10;;;;;;;;;;6128524;23;20444;-80
2021/12/10 11:04:16;;;;;;;13.38;8.48;;;;;;;;;;6128312;23;20414;-81
2021/12/10 11:06:47;;;;;;;13.70;6.97;;;;;;;;;;6152776;23;20016;-80
2021/12/10 11:09:15;;;;;;;13.90;6.82;;;;;;;;;;6128628;23;20024;-80
2021/12/10 11:11:48;;;;;;;12.13;7.25;;;;;;;;;;6128379;23;20063;-81
2021/12/10 11:14:28;;;;;;;12.43;7.25;;;;;;;;;;6152780;23;20020;-81
2021/12/10 11:16:56;;;;;;;11.45;6.53;;;;;;;;;;6129734;23;20013;-81
2021/12/10 11:19:24;;;;;;;12.63;7.40;;;;;;;;;;6154589;23;20017;-79
2021/12/10 11:21:55;;;;;;;12.35;6.43;;;;;;;;;;6154618;23;20024;-81
2021/12/10 11:24:25;;;;;;;10.73;6.70;;;;;;;;;;6154564;23;20037;-80
2021/12/10 11:26:53;;;;;;;12.20;6.55;;;;;;;;;;6154572;23;20324;-81
2021/12/10 11:29:40;;;;;;;12.95;6.80;;;;;;;;;;6154393;23;20106;-81
2021/12/10 11:32:12;;;;;;;11.52;6.72;;;;;;;;;;6154629;23;20321;-82
2021/12/10 11:34:46;;;;;;;11.30;6.47;;;;;;;;;;6154692;23;20009;-81
2021/12/10 11:37:13;;;;;;;12.32;6.93;;;;;;;;;;6154553;23;20072;-81
2021/12/10 11:39:42;;;;;;;13.90;6.88;;;;;;;;;;6154426;23;20013;-82
2021/12/10 11:42:27;;;;;;;10.27;6.20;;;;;;;;;;6129889;23;20013;-82
2021/12/10 11:45:28;;;;;;;;;;;;;;;;;;6130351;23;20017;-83
2021/12/10 11:47:54;;;;;;;12.35;6.47;;;;;;;;;;6154229;23;19952;-82
2021/12/10 11:50:21;;;;;;;10.82;6.43;;;;;;;;;;6154463;23;20068;-83
2021/12/10 11:53:04;;;;;;;10.98;5.93;;;;;;;;;;6130088;23;20009;-83
2021/12/10 11:55:32;;;;;;;12.00;6.40;;;;;;;;;;6129573;23;20391;-82
2021/12/10 11:57:58;;;;;;;9.60;5.45;;;;;;;;;;6129407;23;20478;-83
2021/12/10 12:00:26;;;;;;;11.80;6.05;;;;;;;;;;6154392;23;20013;-83
2021/12/10 12:02:55;;;;;;;10.57;5.85;;;;;;;;;;6154203;23;20009;-83
2021/12/10 12:05:27;;;;;;;9.98;5.55;;;;;;;;;;6154099;23;20017;-83
2021/12/10 12:07:57;;;;;;;9.85;5.47;;;;;;;;;;6154039;23;20009;-83
2021/12/10 12:10:28;;;;;;;10.75;5.47;;;;;;;;;;6154205;23;20459;-83
2021/12/10 12:13:04;;;;;;;17.75;10.35;;;;;;;;;;6129765;23;20355;-83
2021/12/10 12:15:36;;;;;;;14.45;9.40;;;;;;;;;;6153930;23;20545;-82
2021/12/10 12:18:08;;;;;;;14.65;7.25;;;;;;;;;;6154111;23;20039;-82
2021/12/10 12:20:34;;;;;;;20.17;11.70;;;;;;;;;;6154130;23;20076;-83
2021/12/10 12:25:52;;;;;;;14.23;8.25;;;;;;;;;;6154115;23;20017;-84
2021/12/10 12:28:19;;;;;;;24.35;15.75;;;;;;;;;;6153230;23;20092;-82
2021/12/10 12:30:50;;;;;;;13.75;8.18;;;;;;;;;;6129340;23;20016;-82
2021/12/10 12:33:16;;;;;;;35.60;32.10;;;;;;;;;;6153711;23;20028;-81
2021/12/10 12:35:42;;;;;;;23.40;17.70;;;;;;;;;;6154007;23;20354;-82
2021/12/10 12:38:10;;;;;;;11.10;6.85;;;;;;;;;;6153757;23;20019;-81
2021/12/10 12:40:37;;;;;;;12.18;7.03;;;;;;;;;;6153718;23;20032;-80
2021/12/10 12:43:06;;;;;;;10.07;6.40;;;;;;;;;;6154310;23;20009;-81
2021/12/10 12:45:34;;;;;;;12.57;7.88;;;;;;;;;;6156698;23;20033;-81
2021/12/10 12:48:03;;;;;;;11.88;7.10;;;;;;;;;;6156806;23;20009;-81
2021/12/10 12:50:31;;;;;;;9.93;5.90;;;;;;;;;;6157033;23;20013;-81
2021/12/10 12:52:57;;;;;;;12.30;6.05;;;;;;;;;;6157028;23;20354;-81
2021/12/10 12:55:26;;;;;;;11.05;5.97;;;;;;;;;;6132343;23;20020;-82
2021/12/10 12:58:11;;;;;;;12.52;5.80;;;;;;;;;;6156873;23;20269;-82
2021/12/10 13:00:37;;;;;;;;;;;;;;;;;;6157256;23;20096;-82
2021/12/10 13:03:12;;;;;;;9.80;4.78;;;;;;;;;;6156812;23;20523;-82
2021/12/10 13:05:41;;;;;;;9.98;4.47;;;;;;;;;;6156629;23;20439;-82
2021/12/10 13:08:09;;;;;;;9.77;5.15;;;;;;;;;;6132069;23;20354;-83
2021/12/10 13:10:38;;;;;;;9.85;5.93;;;;;;;;;;6155801;23;20332;-84
2021/12/10 13:13:12;;;;;;;9.10;5.00;;;;;;;;;;6154031;23;20335;-83
2021/12/10 13:15:39;;;;;;;8.23;4.68;;;;;;;;;;6153624;23;20071;-83
2021/12/10 13:18:07;;;;;;;8.98;5.22;;;;;;;;;;6153468;23;20016;-82
2021/12/10 13:20:40;;;;;;;9.23;4.70;;;;;;;;;;6129122;23;20040;-83
2021/12/10 13:23:09;;;;;;;9.50;4.88;;;;;;;;;;6153561;23;20079;-82
2021/12/10 13:25:36;;;;;;;11.70;6.05;;;;;;;;;;6153501;23;20075;-82
2021/12/10 13:28:02;;;;;;;17.67;14.65;;;;;;;;;;6128687;23;20013;-84
2021/12/10 13:30:30;;;;;;;10.57;6.53;;;;;;;;;;6126879;23;20017;-83
2021/12/10 13:32:57;;;;;;;21.50;15.63;;;;;;;;;;6152854;23;20092;-83
2021/12/10 13:35:24;;;;;;;14.13;9.32;;;;;;;;;;6153042;23;20017;-84
2021/12/10 13:37:51;;;;;;;13.48;9.25;;;;;;;;;;6128723;23;20044;-83
2021/12/10 13:40:18;;;;;;;31.42;22.10;;;;;;;;;;6150334;23;20396;-84
2021/12/10 13:42:45;;;;;;;21.10;14.15;;;;;;;;;;6152737;23;20604;-83
2021/12/10 13:45:11;;;;;;;29.73;20.95;;;;;;;;;;6151528;23;20016;-83
2021/12/10 13:47:40;;;;;;;20.73;12.63;;;;;;;;;;6151801;23;20455;-84
2021/12/10 13:50:16;;;;;;;21.17;14.90;;;;;;;;;;6127639;23;20208;-83
2021/12/10 13:52:48;;;;;;;14.80;8.48;;;;;;;;;;6128276;23;20013;-83
2021/12/10 13:55:17;;;;;;;17.15;11.55;;;;;;;;;;6151567;23;20075;-83
2021/12/10 13:57:44;;;;;;;15.23;10.15;;;;;;;;;;6153234;23;20048;-84
2021/12/10 14:00:12;;;;;;;10.80;6.85;;;;;;;;;;6152505;23;20112;-83
2021/12/10 14:02:40;;;;;;;9.35;5.78;;;;;;;;;;6153482;23;20020;-83
2021/12/10 14:05:24;;;;;;;12.80;6.40;;;;;;;;;;6131559;23;20024;-82
2021/12/10 14:07:56;;;;;;;13.88;7.35;;;;;;;;;;6156064;23;20092;-82
2021/12/10 14:10:31;;;;;;;12.65;6.65;;;;;;;;;;6129560;23;20021;-82
2021/12/10 14:12:59;;;;;;;11.38;6.78;;;;;;;;;;6153926;23;20355;-83
2021/12/10 14:16:05;;;;;;;12.05;6.25;;;;;;;;;;6153699;23;20023;-83
2021/12/10 14:18:27;;;;;;;12.30;6.35;;;;;;;;;;6154958;23;20099;-83
2021/12/10 14:21:02;;;;;;;11.82;7.10;;;;;;;;;;6130407;23;20019;-82
2021/12/10 14:23:35;;;;;;;10.73;6.80;;;;;;;;;;6154126;23;20023;-80
2021/12/10 14:26:06;;;;;;;12.73;6.70;;;;;;;;;;6154129;23;20407;-83
2021/12/10 14:28:39;;;;;;;11.82;6.53;;;;;;;;;;6154043;23;20343;-83
2021/12/10 14:31:07;;;;;;;12.55;5.78;;;;;;;;;;6128564;23;20417;-82
2021/12/10 14:33:38;;;;;;;12.07;6.13;;;;;;;;;;6128343;23;20009;-82
2021/12/10 14:36:07;;;;;;;10.05;6.22;;;;;;;;;;6152550;23;20107;-82
2021/12/10 14:38:52;;;;;;;12.02;6.80;;;;;;;;;;6128062;23;20017;-82
2021/12/10 14:41:29;;;;;;;10.65;5.80;;;;;;;;;;6152843;23;20462;-81